createdAt,value
2023-02-01T00:02:55.449Z,99155.55
2023-02-01T00:07:56.899Z,99146.85
2023-02-01T00:12:58.342Z,99135.55
2023-02-01T00:17:59.797Z,99131.10
2023-02-01T00:23:01.279Z,99122.46
2023-02-01T00:28:02.820Z,99115.21
2023-02-01T00:33:04.323Z,99112.11
2023-02-01T00:38:05.791Z,99124.11
2023-02-01T00:43:07.247Z,99127.40
2023-02-01T00:48:08.716Z,99123.10
2023-02-01T00:53:11.411Z,99117.54
2023-02-01T00:58:13.169Z,99123.98
2023-02-01T01:03:20.269Z,99128.06
2023-02-01T01:08:21.714Z,99139.60
2023-02-01T01:13:23.693Z,99156.63
2023-02-01T01:18:25.302Z,99151.60
2023-02-01T01:23:27.452Z,99154.46
2023-02-01T01:28:28.972Z,99146.59
2023-02-01T01:33:30.601Z,99149.50
2023-02-01T01:38:32.043Z,99148.59
2023-02-01T01:44:00.576Z,99158.49
2023-02-01T01:49:21.392Z,99169.20
2023-02-01T01:54:28.480Z,99168.48
2023-02-01T01:59:32.309Z,99169.48
2023-02-01T02:04:35.532Z,99171.98
2023-02-01T02:09:38.502Z,99174.84
2023-02-01T02:14:40.334Z,99185.80
2023-02-01T02:20:06.289Z,99195.83
2023-02-01T02:25:39.304Z,99193.88
2023-02-01T02:31:26.317Z,99194.95
2023-02-01T02:36:49.438Z,99196.95
2023-02-01T02:42:25.330Z,99199.64
2023-02-01T02:47:37.318Z,99200.73
2023-02-01T02:53:04.968Z,99204.08
2023-02-01T02:58:26.934Z,99206.77
2023-02-01T03:03:47.003Z,99210.59
2023-02-01T03:08:48.600Z,99216.95
2023-02-01T03:14:01.142Z,99207.73
2023-02-01T03:19:08.127Z,99219.85
2023-02-01T03:24:16.229Z,99221.44
2023-02-01T03:29:24.038Z,99218.95
2023-02-01T03:34:28.643Z,99217.33
2023-02-01T03:40:01.701Z,99221.54
2023-02-01T03:45:06.123Z,99232.54
2023-02-01T03:50:26.392Z,99231.81
2023-02-01T03:55:29.672Z,99228.88
2023-02-01T04:00:31.318Z,99231.66
2023-02-01T04:05:33.787Z,99235.56
2023-02-01T04:10:35.349Z,99240.58
2023-02-01T04:15:37.087Z,99245.62
2023-02-01T04:20:38.597Z,99245.50
2023-02-01T04:25:40.059Z,99245.77
2023-02-01T04:30:41.627Z,99250.04
2023-02-01T04:35:43.263Z,99253.61
2023-02-01T04:40:47.356Z,99247.89
2023-02-01T04:45:50.157Z,99254.98
2023-02-01T04:50:52.158Z,99245.33
2023-02-01T04:55:53.596Z,99246.06
2023-02-01T05:00:55.047Z,99247.65
2023-02-01T05:05:56.758Z,99255.41
2023-02-01T05:10:59.776Z,99265.96
2023-02-01T05:16:01.307Z,99275.02
2023-02-01T05:21:03.511Z,99281.35
2023-02-01T05:26:05.193Z,99281.68
2023-02-01T05:31:11.325Z,99279.48
2023-02-01T05:36:12.926Z,99268.56
2023-02-01T05:41:14.373Z,99270.29
2023-02-01T05:46:16.495Z,99267.13
2023-02-01T05:51:18.071Z,99266.81
2023-02-01T05:56:19.553Z,99269.26
2023-02-01T06:01:21.019Z,99273.55
2023-02-01T06:06:22.441Z,99267.35
2023-02-01T06:11:32.350Z,99268.15
2023-02-01T06:16:34.815Z,99268.91
2023-02-01T06:21:37.413Z,99272.84
2023-02-01T06:26:40.043Z,99269.00
2023-02-01T06:31:43.464Z,99266.95
2023-02-01T06:36:44.979Z,99269.86
2023-02-01T06:41:50.354Z,99266.80
2023-02-01T06:46:51.896Z,99271.37
2023-02-01T06:51:53.346Z,99264.48
2023-02-01T06:56:54.912Z,99259.03
2023-02-01T07:01:56.440Z,99250.13
2023-02-01T07:06:58.003Z,99245.65
2023-02-01T07:11:59.441Z,99245.59
2023-02-01T07:17:00.908Z,99247.34
2023-02-01T07:22:02.437Z,99246.44
2023-02-01T07:27:04.091Z,99243.41
2023-02-01T07:32:06.362Z,99240.65
2023-02-01T07:37:07.875Z,99247.83
2023-02-01T07:42:09.420Z,99240.01
2023-02-01T07:47:10.895Z,99242.95
2023-02-01T07:52:14.129Z,99251.19
2023-02-01T07:57:15.635Z,99248.33
2023-02-01T08:02:17.230Z,99244.34
2023-02-01T08:07:18.825Z,99253.91
2023-02-01T08:12:20.267Z,99259.39
2023-02-01T08:17:21.742Z,99266.14
2023-02-01T08:22:23.319Z,99262.39
2023-02-01T08:27:24.818Z,99259.37
2023-02-01T08:32:27.459Z,99260.84
2023-02-01T08:37:28.964Z,99262.73
2023-02-01T08:42:49.510Z,99257.02
2023-02-01T08:47:52.708Z,99255.65
2023-02-01T08:52:55.142Z,99260.81
2023-02-01T08:57:57.457Z,99264.50
2023-02-01T09:02:59.660Z,99266.02
2023-02-01T09:08:01.328Z,99268.85
2023-02-01T09:13:04.046Z,99264.65
2023-02-01T09:18:05.731Z,99265.02
2023-02-01T09:23:08.396Z,99268.46
2023-02-01T09:28:10.141Z,99263.18
2023-02-01T09:33:11.894Z,99266.59
2023-02-01T09:38:13.427Z,99257.05
2023-02-01T09:43:22.179Z,99259.02
2023-02-01T09:48:32.195Z,99257.50
2023-02-01T09:53:43.991Z,99258.20
2023-02-01T09:59:09.262Z,99254.59
2023-02-01T10:04:15.242Z,99252.61
2023-02-01T10:09:41.820Z,99250.23
2023-02-01T10:14:58.485Z,99256.90
2023-02-01T10:20:13.641Z,99245.00
2023-02-01T10:25:36.418Z,99247.59
2023-02-01T10:30:46.298Z,99238.31
2023-02-01T10:35:56.513Z,99237.45
2023-02-01T10:41:22.599Z,99241.73
2023-02-01T10:46:24.958Z,99248.02
2023-02-01T10:51:32.043Z,99246.84
2023-02-01T10:56:39.012Z,99237.11
2023-02-01T11:01:43.001Z,99236.05
2023-02-01T11:06:47.490Z,99239.08
2023-02-01T11:11:49.052Z,99235.30
2023-02-01T11:16:55.189Z,99240.48
2023-02-01T11:22:00.562Z,99237.20
2023-02-01T11:27:16.063Z,99230.26
2023-02-01T11:32:25.741Z,99227.20
2023-02-01T11:37:36.430Z,99225.95
2023-02-01T11:42:58.721Z,99222.54
2023-02-01T11:48:01.475Z,99216.69
2023-02-01T11:53:29.180Z,99228.48
2023-02-01T11:58:30.549Z,99213.73
2023-02-01T12:03:40.922Z,99212.58
2023-02-01T12:08:54.720Z,99211.56
2023-02-01T12:13:59.279Z,99209.85
2023-02-01T12:19:14.141Z,99208.76
2023-02-01T12:24:34.087Z,99200.55
2023-02-01T12:29:54.225Z,99200.42
2023-02-01T12:35:32.914Z,99192.29
2023-02-01T12:41:05.412Z,99186.81
2023-02-01T12:46:17.436Z,99196.20
2023-02-01T12:51:27.366Z,99199.08
2023-02-01T12:56:47.203Z,99200.15
2023-02-01T13:02:13.851Z,99197.30
2023-02-01T13:07:22.340Z,99204.48
2023-02-01T13:12:30.416Z,99202.27
2023-02-01T13:17:34.715Z,99213.73
2023-02-01T13:22:44.718Z,99215.86
2023-02-01T13:27:47.446Z,99208.93
2023-02-01T13:33:54.012Z,99206.91
2023-02-01T13:38:37.462Z,99201.90
2023-02-01T13:43:42.978Z,99206.86
2023-02-01T13:48:52.527Z,99215.46
2023-02-01T13:53:54.075Z,99233.79
2023-02-01T13:58:55.632Z,99235.94
2023-02-01T14:04:02.483Z,99213.34
2023-02-01T14:09:31.389Z,99211.41
2023-02-01T14:14:35.869Z,99204.48
2023-02-01T14:19:38.320Z,99205.14
2023-02-01T14:24:39.889Z,99205.75
2023-02-01T14:29:44.664Z,99203.70
2023-02-01T14:34:49.251Z,99208.14
2023-02-01T14:40:15.727Z,99216.48
2023-02-01T14:45:23.904Z,99208.30
2023-02-01T14:50:33.406Z,99199.84
2023-02-01T14:55:43.949Z,99200.00
2023-02-01T15:00:57.380Z,99208.70
2023-02-01T15:06:01.814Z,99211.52
2023-02-01T15:11:10.378Z,99222.54
2023-02-01T15:16:14.972Z,99224.90
2023-02-01T15:21:28.523Z,99227.20
2023-02-01T15:26:33.278Z,99234.15
2023-02-01T15:31:39.680Z,99235.27
2023-02-01T15:36:53.545Z,99233.34
2023-02-01T15:42:16.563Z,99233.63
2023-02-01T15:47:24.412Z,99226.02
2023-02-01T15:52:38.486Z,99226.71
2023-02-01T15:57:43.016Z,99228.23
2023-02-01T16:02:58.197Z,99228.60
2023-02-01T16:08:14.692Z,99234.11
2023-02-01T16:13:18.085Z,99233.84
2023-02-01T16:18:21.116Z,99231.38
2023-02-01T16:23:22.590Z,99228.95
2023-02-01T16:28:24.061Z,99226.02
2023-02-01T16:33:26.289Z,99223.38
2023-02-01T16:38:27.851Z,99222.73
2023-02-01T16:43:29.685Z,99228.58
2023-02-01T16:48:35.406Z,99231.04
2023-02-01T16:53:52.363Z,99229.03
2023-02-01T16:58:55.366Z,99222.10
2023-02-01T17:03:57.299Z,99221.95
2023-02-01T17:09:00.475Z,99222.25
2023-02-01T17:14:16.112Z,99213.71
2023-02-01T17:19:24.122Z,99213.04
2023-02-01T17:24:39.231Z,99206.23
2023-02-01T17:29:49.270Z,99206.41
2023-02-01T17:34:50.931Z,99207.30
2023-02-01T17:39:54.964Z,99219.77
2023-02-01T17:44:59.876Z,99235.96
2023-02-01T17:50:01.375Z,99227.14
2023-02-01T17:55:04.739Z,99231.12
2023-02-01T18:00:07.701Z,99233.37
2023-02-01T18:05:24.063Z,99234.88
2023-02-01T18:10:26.009Z,99236.31
2023-02-01T18:15:28.247Z,99238.92
2023-02-01T18:20:29.963Z,99236.62
2023-02-01T18:25:37.175Z,99234.70
2023-02-01T18:30:38.865Z,99239.48
2023-02-01T18:35:41.226Z,99240.04
2023-02-01T18:40:53.531Z,99240.80
2023-02-01T18:45:55.698Z,99233.61
2023-02-01T18:50:57.874Z,99235.52
2023-02-01T18:55:59.862Z,99228.09
2023-02-01T19:01:07.276Z,99229.20
2023-02-01T19:06:09.644Z,99227.46
2023-02-01T19:11:11.127Z,99220.53
2023-02-01T19:16:13.851Z,99221.73
2023-02-01T19:21:15.607Z,99223.82
2023-02-01T19:26:18.512Z,99219.94
2023-02-01T19:31:20.218Z,99223.42
2023-02-01T19:36:21.886Z,99218.83
2023-02-01T19:41:23.429Z,99223.42
2023-02-01T19:46:28.692Z,99226.92
2023-02-01T19:51:30.328Z,99225.95
2023-02-01T19:56:32.069Z,99225.17
2023-02-01T20:01:33.886Z,99227.46
2023-02-01T20:06:39.091Z,99231.48
2023-02-01T20:11:40.597Z,99229.19
2023-02-01T20:16:42.880Z,99226.20
2023-02-01T20:21:44.642Z,99220.88
2023-02-01T20:26:49.102Z,99215.54
2023-02-01T20:31:51.547Z,99214.81
2023-02-01T20:36:53.086Z,99210.09
2023-02-01T20:41:55.165Z,99208.47
2023-02-01T20:46:56.758Z,99207.70
2023-02-01T20:51:58.345Z,99206.91
2023-02-01T20:56:59.823Z,99199.00
2023-02-01T21:02:01.647Z,99198.28
2023-02-01T21:07:03.520Z,99201.38
2023-02-01T21:12:05.391Z,99204.63
2023-02-01T21:17:06.883Z,99202.98
2023-02-01T21:22:09.658Z,99202.14
2023-02-01T21:27:11.274Z,99200.35
2023-02-01T21:32:13.540Z,99199.36
2023-02-01T21:37:15.040Z,99195.48
2023-02-01T21:42:18.435Z,99195.41
2023-02-01T21:47:24.159Z,99198.95
2023-02-01T21:52:28.456Z,99200.80
2023-02-01T21:57:29.980Z,99201.02
2023-02-01T22:02:31.727Z,99203.19
2023-02-01T22:07:36.089Z,99204.24
2023-02-01T22:12:37.579Z,99197.90
2023-02-01T22:17:39.100Z,99200.16
2023-02-01T22:22:41.190Z,99200.39
2023-02-01T22:28:30.737Z,99192.32
2023-02-01T22:33:04.192Z,99198.16
2023-02-01T22:38:05.966Z,99187.59
2023-02-01T22:43:07.515Z,99180.06
2023-02-01T22:48:09.061Z,99179.81
2023-02-01T22:53:10.830Z,99179.59
2023-02-01T22:58:12.876Z,99185.01
2023-02-01T23:03:14.482Z,99188.46
2023-02-01T23:08:16.069Z,99184.95
2023-02-01T23:13:17.619Z,99179.77
2023-02-01T23:18:19.206Z,99181.09
2023-02-01T23:23:20.730Z,99166.91
2023-02-01T23:28:22.263Z,99159.55
2023-02-01T23:33:25.818Z,99157.19
2023-02-01T23:38:28.442Z,99158.06
2023-02-01T23:43:48.829Z,99163.63
2023-02-01T23:48:53.472Z,99167.16
2023-02-01T23:53:55.433Z,99164.63
2023-02-01T23:58:57.163Z,99156.45
